sensor_id;sensor_type;location;lat;lon;timestamp;pressure;altitude;pressure_sealevel;temperature;humidity
20628;BME280;10473;42.734;24.258;2023-02-13T00:00:25;93388.25;;;0.43;66.44
20628;BME280;10473;42.734;24.258;2023-02-13T00:02:52;93382.31;;;0.38;66.67
20628;BME280;10473;42.734;24.258;2023-02-13T00:05:20;93387.56;;;0.17;66.03
20628;BME280;10473;42.734;24.258;2023-02-13T00:07:47;93390.41;;;0.26;67.17
20628;BME280;10473;42.734;24.258;2023-02-13T00:10:16;93390.09;;;0.43;66.01
20628;BME280;10473;42.734;24.258;2023-02-13T00:12:44;93393.25;;;0.29;65.39
20628;BME280;10473;42.734;24.258;2023-02-13T00:15:11;93385.94;;;0.31;65.99
20628;BME280;10473;42.734;24.258;2023-02-13T00:17:40;93388.59;;;0.16;65.17
20628;BME280;10473;42.734;24.258;2023-02-13T00:20:09;93393.53;;;0.28;66.14
20628;BME280;10473;42.734;24.258;2023-02-13T00:22:38;93397.22;;;0.12;65.17
20628;BME280;10473;42.734;24.258;2023-02-13T00:25:06;93401.41;;;0.03;65.48
20628;BME280;10473;42.734;24.258;2023-02-13T00:27:34;93394.34;;;0.13;65.18
20628;BME280;10473;42.734;24.258;2023-02-13T00:30:02;93395.97;;;-0.06;66.17
20628;BME280;10473;42.734;24.258;2023-02-13T00:32:30;93391.25;;;-0.04;65.60
20628;BME280;10473;42.734;24.258;2023-02-13T00:34:59;93395.19;;;-0.16;65.45
20628;BME280;10473;42.734;24.258;2023-02-13T00:37:29;93402.72;;;-0.10;66.02
20628;BME280;10473;42.734;24.258;2023-02-13T00:39:57;93403.25;;;-0.13;65.56
20628;BME280;10473;42.734;24.258;2023-02-13T00:42:24;93404.06;;;-0.32;67.04
20628;BME280;10473;42.734;24.258;2023-02-13T00:44:53;93396.00;;;-0.26;66.60
20628;BME280;10473;42.734;24.258;2023-02-13T00:47:22;93401.22;;;-0.51;67.22
20628;BME280;10473;42.734;24.258;2023-02-13T00:49:49;93396.00;;;-0.66;68.40
20628;BME280;10473;42.734;24.258;2023-02-13T00:52:18;93396.00;;;-0.51;67.12
20628;BME280;10473;42.734;24.258;2023-02-13T00:54:46;93395.75;;;-0.64;67.86
20628;BME280;10473;42.734;24.258;2023-02-13T00:57:14;93402.75;;;-0.80;68.32
20628;BME280;10473;42.734;24.258;2023-02-13T00:59:42;93395.47;;;-0.78;68.12
20628;BME280;10473;42.734;24.258;2023-02-13T01:02:09;93392.84;;;-0.78;68.27
20628;BME280;10473;42.734;24.258;2023-02-13T01:04:39;93394.94;;;-0.80;68.43
20628;BME280;10473;42.734;24.258;2023-02-13T01:07:06;93397.03;;;-0.77;68.30
20628;BME280;10473;42.734;24.258;2023-02-13T01:09:35;93392.88;;;-0.68;67.31
20628;BME280;10473;42.734;24.258;2023-02-13T01:12:03;93393.41;;;-0.76;67.51
20628;BME280;10473;42.734;24.258;2023-02-13T01:14:31;93399.91;;;-0.68;66.75
20628;BME280;10473;42.734;24.258;2023-02-13T01:16:58;93398.59;;;-0.96;68.04
20628;BME280;10473;42.734;24.258;2023-02-13T01:19:26;93399.88;;;-1.08;68.30
20628;BME280;10473;42.734;24.258;2023-02-13T01:21:54;93398.06;;;-0.88;68.42
20628;BME280;10473;42.734;24.258;2023-02-13T01:24:22;93396.50;;;-0.84;67.35
20628;BME280;10473;42.734;24.258;2023-02-13T01:26:51;93396.75;;;-0.80;67.82
20628;BME280;10473;42.734;24.258;2023-02-13T01:29:20;93401.19;;;-0.91;67.88
20628;BME280;10473;42.734;24.258;2023-02-13T01:31:48;93403.75;;;-1.06;68.49
20628;BME280;10473;42.734;24.258;2023-02-13T01:34:16;93403.22;;;-1.03;68.38
20628;BME280;10473;42.734;24.258;2023-02-13T01:36:44;93399.88;;;-0.98;67.90
20628;BME280;10473;42.734;24.258;2023-02-13T01:39:12;93405.34;;;-0.85;67.54
20628;BME280;10473;42.734;24.258;2023-02-13T01:41:39;93412.13;;;-0.84;67.86
20628;BME280;10473;42.734;24.258;2023-02-13T01:47:11;93394.94;;;-0.80;67.60
20628;BME280;10473;42.734;24.258;2023-02-13T01:49:41;93406.38;;;-1.01;67.89
20628;BME280;10473;42.734;24.258;2023-02-13T01:52:11;93404.78;;;-1.07;68.49
20628;BME280;10473;42.734;24.258;2023-02-13T01:54:39;93401.69;;;-0.99;67.90
20628;BME280;10473;42.734;24.258;2023-02-13T01:57:10;93397.00;;;-0.97;67.33
20628;BME280;10473;42.734;24.258;2023-02-13T01:59:45;93405.31;;;-1.05;67.87
20628;BME280;10473;42.734;24.258;2023-02-13T02:02:16;93411.03;;;-0.98;67.61
20628;BME280;10473;42.734;24.258;2023-02-13T02:04:46;93402.19;;;-0.97;67.37
20628;BME280;10473;42.734;24.258;2023-02-13T02:07:20;93403.25;;;-0.93;67.70
20628;BME280;10473;42.734;24.258;2023-02-13T02:09:51;93403.25;;;-0.98;67.88
20628;BME280;10473;42.734;24.258;2023-02-13T02:12:24;93404.81;;;-0.92;67.63
20628;BME280;10473;42.734;24.258;2023-02-13T02:14:54;93392.28;;;-1.20;67.35
20628;BME280;10473;42.734;24.258;2023-02-13T02:17:26;93405.28;;;-1.25;68.86
20628;BME280;10473;42.734;24.258;2023-02-13T02:20:02;93398.78;;;-1.27;68.97
20628;BME280;10473;42.734;24.258;2023-02-13T02:22:58;93402.69;;;-1.15;68.72
20628;BME280;10473;42.734;24.258;2023-02-13T02:25:46;93402.16;;;-1.17;67.16
20628;BME280;10473;42.734;24.258;2023-02-13T02:28:30;93408.97;;;-1.11;67.33
20628;BME280;10473;42.734;24.258;2023-02-13T02:31:53;93407.91;;;-1.15;67.24
20628;BME280;10473;42.734;24.258;2023-02-13T02:34:37;93409.63;;;-1.45;68.80
20628;BME280;10473;42.734;24.258;2023-02-13T02:37:30;93412.44;;;-1.52;69.22
20628;BME280;10473;42.734;24.258;2023-02-13T02:40:09;93411.91;;;-1.59;69.87
20628;BME280;10473;42.734;24.258;2023-02-13T02:42:44;93411.97;;;-1.44;68.74
20628;BME280;10473;42.734;24.258;2023-02-13T02:45:22;93405.72;;;-1.48;68.43
20628;BME280;10473;42.734;24.258;2023-02-13T02:47:58;93420.25;;;-1.47;68.95
20628;BME280;10473;42.734;24.258;2023-02-13T02:50:59;93408.59;;;-1.39;68.14
20628;BME280;10473;42.734;24.258;2023-02-13T02:53:34;93420.47;;;-1.58;68.64
20628;BME280;10473;42.734;24.258;2023-02-13T02:56:10;93408.53;;;-1.59;69.42
20628;BME280;10473;42.734;24.258;2023-02-13T02:58:44;93420.25;;;-1.47;68.22
20628;BME280;10473;42.734;24.258;2023-02-13T03:01:33;93412.44;;;-1.57;67.93
20628;BME280;10473;42.734;24.258;2023-02-13T03:04:23;93420.22;;;-1.57;69.09
20628;BME280;10473;42.734;24.258;2023-02-13T03:07:13;93423.34;;;-1.60;68.62
20628;BME280;10473;42.734;24.258;2023-02-13T03:09:44;93422.78;;;-2.13;70.32
20628;BME280;10473;42.734;24.258;2023-02-13T03:12:35;93420.13;;;-1.82;70.26
20628;BME280;10473;42.734;24.258;2023-02-13T03:15:24;93425.38;;;-1.67;69.13
20628;BME280;10473;42.734;24.258;2023-02-13T03:17:53;93431.84;;;-1.74;68.78
20628;BME280;10473;42.734;24.258;2023-02-13T03:20:44;93429.00;;;-1.73;68.68
20628;BME280;10473;42.734;24.258;2023-02-13T03:23:37;93435.22;;;-1.74;69.22
20628;BME280;10473;42.734;24.258;2023-02-13T03:26:31;93422.97;;;-1.83;69.22
20628;BME280;10473;42.734;24.258;2023-02-13T03:29:26;93425.81;;;-1.85;69.54
20628;BME280;10473;42.734;24.258;2023-02-13T03:32:22;93437.13;;;-2.01;70.24
20628;BME280;10473;42.734;24.258;2023-02-13T03:35:00;93439.31;;;-1.88;68.54
20628;BME280;10473;42.734;24.258;2023-02-13T03:37:54;93444.09;;;-2.11;69.44
20628;BME280;10473;42.734;24.258;2023-02-13T03:40:28;93435.72;;;-2.18;69.38
20628;BME280;10473;42.734;24.258;2023-02-13T03:43:03;93430.31;;;-2.17;69.97
20628;BME280;10473;42.734;24.258;2023-02-13T03:45:36;93436.03;;;-2.10;69.99
20628;BME280;10473;42.734;24.258;2023-02-13T03:48:25;93436.31;;;-2.11;69.90
20628;BME280;10473;42.734;24.258;2023-02-13T03:51:16;93434.53;;;-2.01;68.95
20628;BME280;10473;42.734;24.258;2023-02-13T03:53:50;93437.66;;;-2.04;69.09
20628;BME280;10473;42.734;24.258;2023-02-13T03:56:20;93441.97;;;-2.19;69.89
20628;BME280;10473;42.734;24.258;2023-02-13T03:59:09;93437.72;;;-2.35;70.81
20628;BME280;10473;42.734;24.258;2023-02-13T04:01:50;93437.00;;;-2.21;70.81
20628;BME280;10473;42.734;24.258;2023-02-13T04:04:24;93439.84;;;-2.22;69.81
20628;BME280;10473;42.734;24.258;2023-02-13T04:06:58;93445.91;;;-2.48;70.72
20628;BME280;10473;42.734;24.258;2023-02-13T04:09:30;93447.13;;;-2.56;71.49
20628;BME280;10473;42.734;24.258;2023-02-13T04:12:06;93452.44;;;-2.41;70.82
20628;BME280;10473;42.734;24.258;2023-02-13T04:14:39;93441.06;;;-2.35;70.58
20628;BME280;10473;42.734;24.258;2023-02-13T04:17:14;93447.84;;;-2.34;70.27
20628;BME280;10473;42.734;24.258;2023-02-13T04:19:44;93447.09;;;-2.29;70.80
20628;BME280;10473;42.734;24.258;2023-02-13T04:22:14;93446.25;;;-2.35;70.31
20628;BME280;10473;42.734;24.258;2023-02-13T04:24:43;93447.09;;;-2.61;71.22
20628;BME280;10473;42.734;24.258;2023-02-13T04:27:12;93445.63;;;-2.52;71.00
20628;BME280;10473;42.734;24.258;2023-02-13T04:29:40;93442.06;;;-2.41;70.25
20628;BME280;10473;42.734;24.258;2023-02-13T04:32:09;93448.81;;;-2.40;69.60
20628;BME280;10473;42.734;24.258;2023-02-13T04:34:36;93460.44;;;-2.74;71.54
20628;BME280;10473;42.734;24.258;2023-02-13T04:37:04;93451.81;;;-2.58;70.75
20628;BME280;10473;42.734;24.258;2023-02-13T04:39:32;93454.72;;;-2.49;70.75
20628;BME280;10473;42.734;24.258;2023-02-13T04:42:01;93457.91;;;-2.37;70.31
20628;BME280;10473;42.734;24.258;2023-02-13T04:44:29;93458.88;;;-2.48;70.31
20628;BME280;10473;42.734;24.258;2023-02-13T04:46:56;93456.06;;;-2.42;70.45
20628;BME280;10473;42.734;24.258;2023-02-13T04:49:24;93441.88;;;-2.66;70.51
20628;BME280;10473;42.734;24.258;2023-02-13T04:51:52;93456.06;;;-2.73;70.73
20628;BME280;10473;42.734;24.258;2023-02-13T04:54:19;93478.91;;;-2.97;71.81
20628;BME280;10473;42.734;24.258;2023-02-13T04:56:47;93471.63;;;-2.73;71.47
20628;BME280;10473;42.734;24.258;2023-02-13T04:59:16;93468.75;;;-2.77;71.37
20628;BME280;10473;42.734;24.258;2023-02-13T05:01:44;93462.66;;;-2.61;71.24
20628;BME280;10473;42.734;24.258;2023-02-13T05:04:14;93461.84;;;-2.61;70.93
20628;BME280;10473;42.734;24.258;2023-02-13T05:06:42;93457.75;;;-2.57;70.38
20628;BME280;10473;42.734;24.258;2023-02-13T05:09:10;93467.75;;;-2.97;71.89
20628;BME280;10473;42.734;24.258;2023-02-13T05:11:38;93474.69;;;-3.29;72.83
20628;BME280;10473;42.734;24.258;2023-02-13T05:14:05;93469.09;;;-3.16;72.88
20628;BME280;10473;42.734;24.258;2023-02-13T05:16:34;93474.81;;;-2.93;72.23
20628;BME280;10473;42.734;24.258;2023-02-13T05:19:02;93472.78;;;-2.86;72.15
20628;BME280;10473;42.734;24.258;2023-02-13T05:21:30;93479.00;;;-2.87;71.87
20628;BME280;10473;42.734;24.258;2023-02-13T05:24:15;93475.88;;;-2.89;71.52
20628;BME280;10473;42.734;24.258;2023-02-13T05:26:43;93485.53;;;-2.84;71.37
20628;BME280;10473;42.734;24.258;2023-02-13T05:29:11;93472.88;;;-3.02;71.96
20628;BME280;10473;42.734;24.258;2023-02-13T05:31:51;93479.72;;;-2.91;71.80
20628;BME280;10473;42.734;24.258;2023-02-13T05:34:20;93484.88;;;-2.96;71.94
20628;BME280;10473;42.734;24.258;2023-02-13T05:36:48;93487.63;;;-3.08;72.14
20628;BME280;10473;42.734;24.258;2023-02-13T05:39:16;93491.88;;;-2.97;72.15
20628;BME280;10473;42.734;24.258;2023-02-13T05:41:47;93489.09;;;-2.90;71.84
20628;BME280;10473;42.734;24.258;2023-02-13T05:44:17;93492.78;;;-2.81;72.49
20628;BME280;10473;42.734;24.258;2023-02-13T05:46:44;93503.66;;;-2.58;71.85
20628;BME280;10473;42.734;24.258;2023-02-13T05:49:14;93506.56;;;-2.54;72.38
20628;BME280;10473;42.734;24.258;2023-02-13T05:51:42;93489.91;;;-2.27;70.50
20628;BME280;10473;42.734;24.258;2023-02-13T05:54:11;93489.78;;;-2.10;70.64
20628;BME280;10473;42.734;24.258;2023-02-13T05:56:39;93493.34;;;-2.21;70.42
20628;BME280;10473;42.734;24.258;2023-02-13T05:59:07;93501.03;;;-1.95;70.50
20628;BME280;10473;42.734;24.258;2023-02-13T06:01:35;93502.25;;;-1.66;69.67
20628;BME280;10473;42.734;24.258;2023-02-13T06:04:03;93499.84;;;-1.31;69.47
20628;BME280;10473;42.734;24.258;2023-02-13T06:06:32;93493.16;;;-1.12;68.32
20628;BME280;10473;42.734;24.258;2023-02-13T06:09:00;93505.25;;;-0.81;67.51
20628;BME280;10473;42.734;24.258;2023-02-13T06:11:28;93514.41;;;-0.58;67.80
20628;BME280;10473;42.734;24.258;2023-02-13T06:13:56;93509.50;;;-0.25;66.44
20628;BME280;10473;42.734;24.258;2023-02-13T06:16:23;93512.38;;;0.04;66.94
20628;BME280;10473;42.734;24.258;2023-02-13T06:18:51;93515.47;;;0.36;65.71
20628;BME280;10473;42.734;24.258;2023-02-13T06:21:19;93513.84;;;0.65;64.81
20628;BME280;10473;42.734;24.258;2023-02-13T06:23:48;93520.28;;;0.98;64.33
20628;BME280;10473;42.734;24.258;2023-02-13T06:26:15;93519.38;;;1.22;62.66
20628;BME280;10473;42.734;24.258;2023-02-13T06:28:44;93524.56;;;1.32;61.21
20628;BME280;10473;42.734;24.258;2023-02-13T06:31:11;93523.91;;;1.55;61.68
20628;BME280;10473;42.734;24.258;2023-02-13T06:33:39;93516.53;;;1.67;59.51
20628;BME280;10473;42.734;24.258;2023-02-13T06:36:07;93517.16;;;1.92;59.53
20628;BME280;10473;42.734;24.258;2023-02-13T06:38:34;93522.66;;;2.25;59.73
20628;BME280;10473;42.734;24.258;2023-02-13T06:41:04;93523.72;;;2.52;58.51
20628;BME280;10473;42.734;24.258;2023-02-13T06:43:32;93516.06;;;2.84;56.94
20628;BME280;10473;42.734;24.258;2023-02-13T06:46:03;93524.38;;;3.15;56.01
20628;BME280;10473;42.734;24.258;2023-02-13T06:48:31;93526.28;;;3.33;55.67
20628;BME280;10473;42.734;24.258;2023-02-13T06:50:59;93516.56;;;3.52;54.76
20628;BME280;10473;42.734;24.258;2023-02-13T06:53:28;93525.81;;;3.68;54.13
20628;BME280;10473;42.734;24.258;2023-02-13T06:55:56;93532.41;;;3.65;53.85
20628;BME280;10473;42.734;24.258;2023-02-13T06:58:25;93525.53;;;3.88;51.82
20628;BME280;10473;42.734;24.258;2023-02-13T07:00:53;93543.63;;;3.66;51.84
20628;BME280;10473;42.734;24.258;2023-02-13T07:03:20;93542.81;;;3.89;52.17
20628;BME280;10473;42.734;24.258;2023-02-13T07:05:48;93535.72;;;3.71;52.80
20628;BME280;10473;42.734;24.258;2023-02-13T07:08:18;93546.63;;;4.15;51.99
20628;BME280;10473;42.734;24.258;2023-02-13T07:10:45;93540.22;;;4.39;51.47
20628;BME280;10473;42.734;24.258;2023-02-13T07:13:13;93542.88;;;4.53;53.32
20628;BME280;10473;42.734;24.258;2023-02-13T07:15:42;93553.25;;;4.76;52.92
20628;BME280;10473;42.734;24.258;2023-02-13T07:18:10;93548.25;;;5.20;52.59
20628;BME280;10473;42.734;24.258;2023-02-13T07:20:38;93548.94;;;5.39;50.72
20628;BME280;10473;42.734;24.258;2023-02-13T07:23:09;93535.47;;;5.68;50.18
20628;BME280;10473;42.734;24.258;2023-02-13T07:25:37;93538.69;;;5.78;48.26
20628;BME280;10473;42.734;24.258;2023-02-13T07:28:05;93546.47;;;5.97;48.21
20628;BME280;10473;42.734;24.258;2023-02-13T07:30:33;93541.84;;;6.16;46.41
20628;BME280;10473;42.734;24.258;2023-02-13T07:33:03;93540.28;;;6.15;48.26
20628;BME280;10473;42.734;24.258;2023-02-13T07:35:31;93544.59;;;6.55;46.50
20628;BME280;10473;42.734;24.258;2023-02-13T07:38:01;93549.16;;;6.41;45.85
20628;BME280;10473;42.734;24.258;2023-02-13T07:40:28;93544.78;;;6.58;46.89
20628;BME280;10473;42.734;24.258;2023-02-13T07:42:59;93533.91;;;6.51;48.41
20628;BME280;10473;42.734;24.258;2023-02-13T07:45:27;93542.06;;;6.72;47.10
20628;BME280;10473;42.734;24.258;2023-02-13T07:47:54;93538.97;;;6.70;47.90
20628;BME280;10473;42.734;24.258;2023-02-13T07:50:24;93541.69;;;7.09;46.45
20628;BME280;10473;42.734;24.258;2023-02-13T07:52:55;93535.72;;;6.95;47.12
20628;BME280;10473;42.734;24.258;2023-02-13T07:55:23;93535.13;;;6.98;46.84
20628;BME280;10473;42.734;24.258;2023-02-13T07:57:51;93541.03;;;7.42;46.44
20628;BME280;10473;42.734;24.258;2023-02-13T08:00:20;93539.16;;;7.82;46.33
20628;BME280;10473;42.734;24.258;2023-02-13T08:02:48;93531.88;;;7.96;45.48
20628;BME280;10473;42.734;24.258;2023-02-13T08:05:15;93531.13;;;8.46;44.56
20628;BME280;10473;42.734;24.258;2023-02-13T08:07:44;93537.38;;;8.42;43.96
20628;BME280;10473;42.734;24.258;2023-02-13T08:10:13;93530.13;;;9.02;43.05
20628;BME280;10473;42.734;24.258;2023-02-13T08:12:58;93534.56;;;8.47;44.30
20628;BME280;10473;42.734;24.258;2023-02-13T08:15:26;93536.09;;;8.82;43.96
20628;BME280;10473;42.734;24.258;2023-02-13T08:17:54;93527.03;;;9.46;42.49
20628;BME280;10473;42.734;24.258;2023-02-13T08:20:22;93530.13;;;9.48;42.94
20628;BME280;10473;42.734;24.258;2023-02-13T08:22:51;93531.38;;;10.08;41.67
20628;BME280;10473;42.734;24.258;2023-02-13T08:25:19;93528.44;;;10.30;40.99
20628;BME280;10473;42.734;24.258;2023-02-13T08:27:46;93532.63;;;10.11;40.51
20628;BME280;10473;42.734;24.258;2023-02-13T08:30:14;93529.81;;;9.49;41.60
20628;BME280;10473;42.734;24.258;2023-02-13T08:32:42;93533.25;;;9.79;41.89
20628;BME280;10473;42.734;24.258;2023-02-13T08:35:10;93538.13;;;9.97;41.06
20628;BME280;10473;42.734;24.258;2023-02-13T08:37:37;93533.47;;;10.44;41.00
20628;BME280;10473;42.734;24.258;2023-02-13T08:40:07;93525.16;;;10.86;40.61
20628;BME280;10473;42.734;24.258;2023-02-13T08:42:36;93520.09;;;11.50;38.79
20628;BME280;10473;42.734;24.258;2023-02-13T08:45:04;93526.50;;;11.49;38.77
20628;BME280;10473;42.734;24.258;2023-02-13T08:47:32;93526.22;;;11.86;38.79
20628;BME280;10473;42.734;24.258;2023-02-13T08:50:00;93527.06;;;11.54;39.32
20628;BME280;10473;42.734;24.258;2023-02-13T08:52:27;93521.22;;;12.21;37.37
20628;BME280;10473;42.734;24.258;2023-02-13T08:54:55;93525.00;;;12.20;37.51
20628;BME280;10473;42.734;24.258;2023-02-13T08:57:24;93522.16;;;12.52;37.45
20628;BME280;10473;42.734;24.258;2023-02-13T08:59:52;93522.34;;;12.99;36.68
20628;BME280;10473;42.734;24.258;2023-02-13T09:02:20;93520.78;;;12.98;36.02
20628;BME280;10473;42.734;24.258;2023-02-13T09:04:47;93528.03;;;12.85;34.99
20628;BME280;10473;42.734;24.258;2023-02-13T09:07:15;93508.28;;;12.59;36.24
20628;BME280;10473;42.734;24.258;2023-02-13T09:09:42;93518.97;;;13.02;36.29
20628;BME280;10473;42.734;24.258;2023-02-13T09:12:10;93511.81;;;13.33;35.43
20628;BME280;10473;42.734;24.258;2023-02-13T09:14:40;93517.78;;;13.58;34.20
20628;BME280;10473;42.734;24.258;2023-02-13T09:17:07;93522.25;;;14.35;33.21
20628;BME280;10473;42.734;24.258;2023-02-13T09:19:35;93521.69;;;14.10;33.60
20628;BME280;10473;42.734;24.258;2023-02-13T09:22:03;93515.72;;;14.32;34.42
20628;BME280;10473;42.734;24.258;2023-02-13T09:24:30;93523.06;;;14.20;33.64
20628;BME280;10473;42.734;24.258;2023-02-13T09:26:58;93515.97;;;13.93;34.15
20628;BME280;10473;42.734;24.258;2023-02-13T09:29:26;93516.09;;;14.15;35.23
20628;BME280;10473;42.734;24.258;2023-02-13T09:31:57;93506.78;;;12.73;34.99
20628;BME280;10473;42.734;24.258;2023-02-13T09:34:26;93501.47;;;13.01;35.48
20628;BME280;10473;42.734;24.258;2023-02-13T09:36:53;93504.28;;;13.82;34.23
20628;BME280;10473;42.734;24.258;2023-02-13T09:39:21;93505.13;;;13.86;34.37
20628;BME280;10473;42.734;24.258;2023-02-13T09:41:50;93506.00;;;14.59;33.28
20628;BME280;10473;42.734;24.258;2023-02-13T09:44:26;93507.22;;;14.80;33.34
20628;BME280;10473;42.734;24.258;2023-02-13T09:47:10;93504.69;;;15.48;32.32
20628;BME280;10473;42.734;24.258;2023-02-13T09:49:43;93498.69;;;14.37;32.86
20628;BME280;10473;42.734;24.258;2023-02-13T09:52:12;93493.19;;;15.89;31.31
20628;BME280;10473;42.734;24.258;2023-02-13T09:54:40;93493.53;;;16.13;30.66
20628;BME280;10473;42.734;24.258;2023-02-13T09:57:15;93488.31;;;16.20;30.87
20628;BME280;10473;42.734;24.258;2023-02-13T09:59:52;93483.00;;;16.79;30.47
20628;BME280;10473;42.734;24.258;2023-02-13T10:02:37;93485.44;;;17.61;29.53
20628;BME280;10473;42.734;24.258;2023-02-13T10:05:20;93480.38;;;17.99;29.83
20628;BME280;10473;42.734;24.258;2023-02-13T10:07:57;93475.28;;;18.38;27.62
20628;BME280;10473;42.734;24.258;2023-02-13T10:10:34;93480.97;;;18.97;27.48
20628;BME280;10473;42.734;24.258;2023-02-13T10:13:18;93476.69;;;18.79;26.68
20628;BME280;10473;42.734;24.258;2023-02-13T10:15:53;93456.44;;;19.09;26.14
20628;BME280;10473;42.734;24.258;2023-02-13T10:18:28;93465.03;;;19.64;26.92
20628;BME280;10473;42.734;24.258;2023-02-13T10:21:02;93462.59;;;19.10;26.84
20628;BME280;10473;42.734;24.258;2023-02-13T10:23:35;93456.47;;;20.74;25.21
20628;BME280;10473;42.734;24.258;2023-02-13T10:26:10;93451.84;;;20.78;26.13
20628;BME280;10473;42.734;24.258;2023-02-13T10:28:42;93453.84;;;20.46;25.68
20628;BME280;10473;42.734;24.258;2023-02-13T10:31:13;93442.66;;;20.65;25.25
20628;BME280;10473;42.734;24.258;2023-02-13T10:33:48;93425.47;;;19.99;25.49
20628;BME280;10473;42.734;24.258;2023-02-13T10:36:18;93445.41;;;20.51;25.38
20628;BME280;10473;42.734;24.258;2023-02-13T10:38:55;93439.25;;;19.28;26.28
20628;BME280;10473;42.734;24.258;2023-02-13T10:41:28;93432.34;;;18.38;27.02
20628;BME280;10473;42.734;24.258;2023-02-13T10:44:11;93442.56;;;17.64;28.29
20628;BME280;10473;42.734;24.258;2023-02-13T10:46:50;93440.03;;;18.36;27.06
20628;BME280;10473;42.734;24.258;2023-02-13T10:49:32;93432.75;;;19.46;26.82
20628;BME280;10473;42.734;24.258;2023-02-13T10:52:14;93428.13;;;19.43;26.19
20628;BME280;10473;42.734;24.258;2023-02-13T10:55:04;93421.75;;;18.59;27.52
20628;BME280;10473;42.734;24.258;2023-02-13T10:57:51;93425.81;;;19.42;25.99
20628;BME280;10473;42.734;24.258;2023-02-13T11:00:28;93417.75;;;20.22;25.14
20628;BME280;10473;42.734;24.258;2023-02-13T11:02:58;93421.97;;;20.34;24.92
20628;BME280;10473;42.734;24.258;2023-02-13T11:05:31;93406.84;;;20.68;25.45
20628;BME280;10473;42.734;24.258;2023-02-13T11:07:59;93415.00;;;21.40;24.66
20628;BME280;10473;42.734;24.258;2023-02-13T11:10:28;93411.00;;;20.90;23.77
20628;BME280;10473;42.734;24.258;2023-02-13T11:12:56;93419.28;;;22.32;23.23
20628;BME280;10473;42.734;24.258;2023-02-13T11:15:27;93415.00;;;22.72;23.09
20628;BME280;10473;42.734;24.258;2023-02-13T11:17:57;93413.91;;;23.82;23.18
20628;BME280;10473;42.734;24.258;2023-02-13T11:20:33;93404.41;;;22.14;22.96
20628;BME280;10473;42.734;24.258;2023-02-13T11:23:26;93408.25;;;22.13;23.61
20628;BME280;10473;42.734;24.258;2023-02-13T11:26:02;93405.66;;;22.46;23.30
20628;BME280;10473;42.734;24.258;2023-02-13T11:28:31;93393.53;;;22.61;22.83
20628;BME280;10473;42.734;24.258;2023-02-13T11:31:11;93398.34;;;24.13;22.10
20628;BME280;10473;42.734;24.258;2023-02-13T11:33:40;93392.72;;;23.77;21.88
20628;BME280;10473;42.734;24.258;2023-02-13T11:36:14;93386.84;;;23.56;21.72
20628;BME280;10473;42.734;24.258;2023-02-13T11:38:42;93390.16;;;24.39;21.56
20628;BME280;10473;42.734;24.258;2023-02-13T11:41:13;93381.28;;;24.16;21.30
20628;BME280;10473;42.734;24.258;2023-02-13T11:43:46;93379.59;;;24.45;21.01
20628;BME280;10473;42.734;24.258;2023-02-13T11:46:17;93374.63;;;25.18;20.69
20628;BME280;10473;42.734;24.258;2023-02-13T11:49:00;93366.25;;;25.13;20.57
20628;BME280;10473;42.734;24.258;2023-02-13T11:51:41;93364.44;;;24.47;21.40
20628;BME280;10473;42.734;24.258;2023-02-13T11:54:34;93365.59;;;24.27;21.44
20628;BME280;10473;42.734;24.258;2023-02-13T11:57:18;93358.91;;;24.74;22.06
20628;BME280;10473;42.734;24.258;2023-02-13T11:59:48;93358.41;;;24.79;21.42
20628;BME280;10473;42.734;24.258;2023-02-13T12:02:18;93357.28;;;24.57;21.07
20628;BME280;10473;42.734;24.258;2023-02-13T12:04:47;93354.44;;;24.64;21.04
20628;BME280;10473;42.734;24.258;2023-02-13T12:07:19;93354.50;;;24.41;20.92
20628;BME280;10473;42.734;24.258;2023-02-13T12:09:53;93345.81;;;24.49;21.58
20628;BME280;10473;42.734;24.258;2023-02-13T12:12:26;93348.06;;;24.12;21.50
20628;BME280;10473;42.734;24.258;2023-02-13T12:14:56;93343.50;;;24.48;21.15
20628;BME280;10473;42.734;24.258;2023-02-13T12:17:27;93337.53;;;23.94;21.30
20628;BME280;10473;42.734;24.258;2023-02-13T12:19:56;93338.34;;;24.34;21.59
20628;BME280;10473;42.734;24.258;2023-02-13T12:22:31;93333.78;;;24.31;21.53
20628;BME280;10473;42.734;24.258;2023-02-13T12:25:29;93329.81;;;23.47;21.58
20628;BME280;10473;42.734;24.258;2023-02-13T12:28:06;93319.31;;;22.66;22.32
20628;BME280;10473;42.734;24.258;2023-02-13T12:30:51;93316.38;;;21.35;22.63
20628;BME280;10473;42.734;24.258;2023-02-13T12:33:38;93309.88;;;21.29;22.81
20628;BME280;10473;42.734;24.258;2023-02-13T12:36:15;93323.34;;;21.80;22.37
20628;BME280;10473;42.734;24.258;2023-02-13T12:38:59;93319.81;;;20.78;23.33
20628;BME280;10473;42.734;24.258;2023-02-13T12:41:35;93317.69;;;21.17;23.39
20628;BME280;10473;42.734;24.258;2023-02-13T12:44:27;93305.19;;;20.79;23.98
20628;BME280;10473;42.734;24.258;2023-02-13T12:47:09;93299.34;;;20.01;25.18
20628;BME280;10473;42.734;24.258;2023-02-13T12:50:05;93310.19;;;19.00;25.79
20628;BME280;10473;42.734;24.258;2023-02-13T12:52:45;93309.06;;;19.36;25.64
20628;BME280;10473;42.734;24.258;2023-02-13T12:55:29;93302.19;;;19.28;25.40
20628;BME280;10473;42.734;24.258;2023-02-13T12:58:12;93296.31;;;17.23;28.36
20628;BME280;10473;42.734;24.258;2023-02-13T13:00:50;93293.72;;;17.34;27.98
20628;BME280;10473;42.734;24.258;2023-02-13T13:03:32;93283.50;;;15.86;29.22
20628;BME280;10473;42.734;24.258;2023-02-13T13:06:21;93281.78;;;14.48;31.32
20628;BME280;10473;42.734;24.258;2023-02-13T13:12:08;93276.06;;;12.86;33.81
20628;BME280;10473;42.734;24.258;2023-02-13T13:14:45;93273.69;;;12.81;34.64
20628;BME280;10473;42.734;24.258;2023-02-13T13:17:25;93264.22;;;12.06;35.60
20628;BME280;10473;42.734;24.258;2023-02-13T13:20:03;93266.06;;;11.11;37.03
20628;BME280;10473;42.734;24.258;2023-02-13T13:22:37;93265.88;;;10.92;38.17
20628;BME280;10473;42.734;24.258;2023-02-13T13:25:16;93261.13;;;10.49;40.01
20628;BME280;10473;42.734;24.258;2023-02-13T13:27:50;93270.44;;;10.11;40.59